sensor_id;sensor_type;location;lat;lon;timestamp;temperature;humidity
75799;DHT22;70933;44.692;37.776;2023-07-24T00:00:54;27.78;33.96
75799;DHT22;70933;44.692;37.776;2023-07-24T00:01:56;27.79;33.84
75799;DHT22;70933;44.692;37.776;2023-07-24T00:02:58;27.78;33.72
75799;DHT22;70933;44.692;37.776;2023-07-24T00:04:00;27.75;33.64
75799;DHT22;70933;44.692;37.776;2023-07-24T00:05:02;27.76;33.63
75799;DHT22;70933;44.692;37.776;2023-07-24T00:06:05;27.76;34.00
75799;DHT22;70933;44.692;37.776;2023-07-24T00:07:07;27.76;35.28
75799;DHT22;70933;44.692;37.776;2023-07-24T00:08:09;27.79;37.14
75799;DHT22;70933;44.692;37.776;2023-07-24T00:09:10;27.80;36.97
75799;DHT22;70933;44.692;37.776;2023-07-24T00:10:12;27.81;36.06
75799;DHT22;70933;44.692;37.776;2023-07-24T00:11:14;27.82;35.76
75799;DHT22;70933;44.692;37.776;2023-07-24T00:12:16;27.81;35.38
75799;DHT22;70933;44.692;37.776;2023-07-24T00:13:17;27.81;35.17
75799;DHT22;70933;44.692;37.776;2023-07-24T00:14:19;27.81;34.99
75799;DHT22;70933;44.692;37.776;2023-07-24T00:15:22;27.79;34.82
75799;DHT22;70933;44.692;37.776;2023-07-24T00:16:24;27.79;34.86
75799;DHT22;70933;44.692;37.776;2023-07-24T00:17:25;27.78;34.44
75799;DHT22;70933;44.692;37.776;2023-07-24T00:18:27;27.78;34.21
75799;DHT22;70933;44.692;37.776;2023-07-24T00:19:29;27.76;34.08
75799;DHT22;70933;44.692;37.776;2023-07-24T00:20:31;27.78;34.01
75799;DHT22;70933;44.692;37.776;2023-07-24T00:21:33;27.76;33.98
75799;DHT22;70933;44.692;37.776;2023-07-24T00:22:34;27.76;35.16
75799;DHT22;70933;44.692;37.776;2023-07-24T00:23:36;27.79;36.63
75799;DHT22;70933;44.692;37.776;2023-07-24T00:24:38;27.81;38.33
75799;DHT22;70933;44.692;37.776;2023-07-24T00:25:40;27.82;36.96
75799;DHT22;70933;44.692;37.776;2023-07-24T00:26:41;27.81;36.46
75799;DHT22;70933;44.692;37.776;2023-07-24T00:27:43;27.81;36.14
75799;DHT22;70933;44.692;37.776;2023-07-24T00:28:48;27.81;35.80
75799;DHT22;70933;44.692;37.776;2023-07-24T00:29:49;27.81;35.44
75799;DHT22;70933;44.692;37.776;2023-07-24T00:30:51;27.81;34.97
75799;DHT22;70933;44.692;37.776;2023-07-24T00:31:53;27.79;34.66
75799;DHT22;70933;44.692;37.776;2023-07-24T00:32:55;27.79;34.28
75799;DHT22;70933;44.692;37.776;2023-07-24T00:33:58;27.78;34.15
75799;DHT22;70933;44.692;37.776;2023-07-24T00:35:02;27.76;33.79
75799;DHT22;70933;44.692;37.776;2023-07-24T00:36:05;27.78;33.57
75799;DHT22;70933;44.692;37.776;2023-07-24T00:37:07;27.75;33.42
75799;DHT22;70933;44.692;37.776;2023-07-24T00:38:08;27.75;33.73
75799;DHT22;70933;44.692;37.776;2023-07-24T00:39:10;27.74;33.44
75799;DHT22;70933;44.692;37.776;2023-07-24T00:40:12;27.74;34.18
75799;DHT22;70933;44.692;37.776;2023-07-24T00:41:14;27.76;35.63
75799;DHT22;70933;44.692;37.776;2023-07-24T00:42:15;27.80;37.68
75799;DHT22;70933;44.692;37.776;2023-07-24T00:43:17;27.80;36.63
75799;DHT22;70933;44.692;37.776;2023-07-24T00:44:19;27.80;36.03
75799;DHT22;70933;44.692;37.776;2023-07-24T00:45:22;27.80;35.37
75799;DHT22;70933;44.692;37.776;2023-07-24T00:46:25;27.79;35.09
75799;DHT22;70933;44.692;37.776;2023-07-24T00:47:27;27.79;34.73
75799;DHT22;70933;44.692;37.776;2023-07-24T00:48:29;27.79;34.43
75799;DHT22;70933;44.692;37.776;2023-07-24T00:49:31;27.78;34.25
75799;DHT22;70933;44.692;37.776;2023-07-24T00:50:33;27.76;34.08
75799;DHT22;70933;44.692;37.776;2023-07-24T00:51:35;27.76;33.73
75799;DHT22;70933;44.692;37.776;2023-07-24T00:52:37;27.76;33.52
75799;DHT22;70933;44.692;37.776;2023-07-24T00:53:39;27.75;33.87
75799;DHT22;70933;44.692;37.776;2023-07-24T00:54:43;27.75;35.50
75799;DHT22;70933;44.692;37.776;2023-07-24T00:55:47;27.79;37.03
75799;DHT22;70933;44.692;37.776;2023-07-24T00:56:49;27.81;37.45
75799;DHT22;70933;44.692;37.776;2023-07-24T00:57:51;27.81;36.34
75799;DHT22;70933;44.692;37.776;2023-07-24T00:58:54;27.81;36.07
75799;DHT22;70933;44.692;37.776;2023-07-24T00:59:59;27.81;35.50
75799;DHT22;70933;44.692;37.776;2023-07-24T01:01:01;27.80;35.36
75799;DHT22;70933;44.692;37.776;2023-07-24T01:02:04;27.79;35.11
75799;DHT22;70933;44.692;37.776;2023-07-24T01:03:07;27.79;34.96
75799;DHT22;70933;44.692;37.776;2023-07-24T01:04:09;27.78;34.65
75799;DHT22;70933;44.692;37.776;2023-07-24T01:05:13;27.75;34.92
75799;DHT22;70933;44.692;37.776;2023-07-24T01:06:17;27.78;35.89
75799;DHT22;70933;44.692;37.776;2023-07-24T01:07:20;27.80;37.83
75799;DHT22;70933;44.692;37.776;2023-07-24T01:08:22;27.82;39.19
75799;DHT22;70933;44.692;37.776;2023-07-24T01:09:24;27.84;37.61
75799;DHT22;70933;44.692;37.776;2023-07-24T01:10:26;27.84;37.25
75799;DHT22;70933;44.692;37.776;2023-07-24T01:11:33;27.82;36.88
75799;DHT22;70933;44.692;37.776;2023-07-24T01:12:54;27.83;36.48
75799;DHT22;70933;44.692;37.776;2023-07-24T01:14:01;27.82;35.79
75799;DHT22;70933;44.692;37.776;2023-07-24T01:15:12;27.81;35.48
75799;DHT22;70933;44.692;37.776;2023-07-24T01:16:18;27.81;35.10
75799;DHT22;70933;44.692;37.776;2023-07-24T01:17:24;27.80;34.72
75799;DHT22;70933;44.692;37.776;2023-07-24T01:18:30;27.79;34.84
75799;DHT22;70933;44.692;37.776;2023-07-24T01:19:52;27.79;34.34
75799;DHT22;70933;44.692;37.776;2023-07-24T01:20:57;27.79;34.24
75799;DHT22;70933;44.692;37.776;2023-07-24T01:25:58;27.81;36.70
75799;DHT22;70933;44.692;37.776;2023-07-24T01:27:00;27.82;36.11
75799;DHT22;70933;44.692;37.776;2023-07-24T01:28:07;27.82;35.65
75799;DHT22;70933;44.692;37.776;2023-07-24T01:29:09;27.80;35.38
75799;DHT22;70933;44.692;37.776;2023-07-24T01:30:12;27.80;35.19
75799;DHT22;70933;44.692;37.776;2023-07-24T01:31:14;27.78;35.03
75799;DHT22;70933;44.692;37.776;2023-07-24T01:32:18;27.78;34.99
75799;DHT22;70933;44.692;37.776;2023-07-24T01:33:21;27.76;35.06
75799;DHT22;70933;44.692;37.776;2023-07-24T01:34:23;27.78;35.81
75799;DHT22;70933;44.692;37.776;2023-07-24T01:35:26;27.80;37.95
75799;DHT22;70933;44.692;37.776;2023-07-24T01:36:29;27.82;39.92
75799;DHT22;70933;44.692;37.776;2023-07-24T01:37:31;27.82;38.64
75799;DHT22;70933;44.692;37.776;2023-07-24T01:38:34;27.82;38.20
75799;DHT22;70933;44.692;37.776;2023-07-24T01:39:36;27.84;38.01
75799;DHT22;70933;44.692;37.776;2023-07-24T01:40:42;27.82;37.33
75799;DHT22;70933;44.692;37.776;2023-07-24T01:41:44;27.82;37.24
75799;DHT22;70933;44.692;37.776;2023-07-24T01:42:46;27.82;37.05
75799;DHT22;70933;44.692;37.776;2023-07-24T01:43:47;27.80;36.87
75799;DHT22;70933;44.692;37.776;2023-07-24T01:44:53;27.79;36.96
75799;DHT22;70933;44.692;37.776;2023-07-24T01:45:55;27.79;36.88
75799;DHT22;70933;44.692;37.776;2023-07-24T01:46:58;27.81;38.03
75799;DHT22;70933;44.692;37.776;2023-07-24T01:47:59;27.82;39.98
75799;DHT22;70933;44.692;37.776;2023-07-24T01:49:02;27.84;40.56
75799;DHT22;70933;44.692;37.776;2023-07-24T01:50:04;27.84;39.12
75799;DHT22;70933;44.692;37.776;2023-07-24T01:51:07;27.85;38.72
75799;DHT22;70933;44.692;37.776;2023-07-24T01:52:09;27.85;37.93
75799;DHT22;70933;44.692;37.776;2023-07-24T01:53:11;27.83;37.54
75799;DHT22;70933;44.692;37.776;2023-07-24T01:54:13;27.84;36.85
75799;DHT22;70933;44.692;37.776;2023-07-24T01:55:14;27.83;36.57
75799;DHT22;70933;44.692;37.776;2023-07-24T01:56:16;27.84;36.27
75799;DHT22;70933;44.692;37.776;2023-07-24T01:57:18;27.83;36.02
75799;DHT22;70933;44.692;37.776;2023-07-24T01:58:20;27.82;36.45
75799;DHT22;70933;44.692;37.776;2023-07-24T01:59:21;27.82;37.99
75799;DHT22;70933;44.692;37.776;2023-07-24T02:00:23;27.84;40.07
75799;DHT22;70933;44.692;37.776;2023-07-24T02:01:33;27.86;39.43
75799;DHT22;70933;44.692;37.776;2023-07-24T02:02:34;27.86;38.32
75799;DHT22;70933;44.692;37.776;2023-07-24T02:03:36;27.86;37.88
75799;DHT22;70933;44.692;37.776;2023-07-24T02:04:40;27.87;37.62
75799;DHT22;70933;44.692;37.776;2023-07-24T02:05:42;27.85;37.33
75799;DHT22;70933;44.692;37.776;2023-07-24T02:06:44;27.84;36.99
75799;DHT22;70933;44.692;37.776;2023-07-24T02:07:45;27.84;36.76
75799;DHT22;70933;44.692;37.776;2023-07-24T02:08:47;27.84;36.58
75799;DHT22;70933;44.692;37.776;2023-07-24T02:09:50;27.81;36.53
75799;DHT22;70933;44.692;37.776;2023-07-24T02:10:52;27.83;37.79
75799;DHT22;70933;44.692;37.776;2023-07-24T02:11:54;27.85;38.96
75799;DHT22;70933;44.692;37.776;2023-07-24T02:12:56;27.86;41.06
75799;DHT22;70933;44.692;37.776;2023-07-24T02:13:59;27.88;39.17
75799;DHT22;70933;44.692;37.776;2023-07-24T02:15:02;27.86;38.71
75799;DHT22;70933;44.692;37.776;2023-07-24T02:16:09;27.85;38.06
75799;DHT22;70933;44.692;37.776;2023-07-24T02:17:10;27.86;37.47
75799;DHT22;70933;44.692;37.776;2023-07-24T02:18:12;27.86;36.95
75799;DHT22;70933;44.692;37.776;2023-07-24T02:19:14;27.85;36.91
75799;DHT22;70933;44.692;37.776;2023-07-24T02:20:36;27.85;36.43
75799;DHT22;70933;44.692;37.776;2023-07-24T02:21:37;27.84;36.17
75799;DHT22;70933;44.692;37.776;2023-07-24T02:22:39;27.84;35.83
75799;DHT22;70933;44.692;37.776;2023-07-24T02:23:41;27.82;35.71
75799;DHT22;70933;44.692;37.776;2023-07-24T02:24:43;27.84;37.44
75799;DHT22;70933;44.692;37.776;2023-07-24T02:25:45;27.85;39.04
75799;DHT22;70933;44.692;37.776;2023-07-24T02:26:46;27.86;39.61
75799;DHT22;70933;44.692;37.776;2023-07-24T02:27:48;27.87;38.24
75799;DHT22;70933;44.692;37.776;2023-07-24T02:28:50;27.86;37.84
75799;DHT22;70933;44.692;37.776;2023-07-24T02:29:52;27.87;37.63
75799;DHT22;70933;44.692;37.776;2023-07-24T02:30:53;27.86;37.19
75799;DHT22;70933;44.692;37.776;2023-07-24T02:32:01;27.85;36.63
75799;DHT22;70933;44.692;37.776;2023-07-24T02:33:03;27.84;36.42
75799;DHT22;70933;44.692;37.776;2023-07-24T02:34:04;27.84;36.39
75799;DHT22;70933;44.692;37.776;2023-07-24T02:35:08;27.83;36.43
75799;DHT22;70933;44.692;37.776;2023-07-24T02:36:09;27.83;36.32
75799;DHT22;70933;44.692;37.776;2023-07-24T02:37:11;27.83;37.28
75799;DHT22;70933;44.692;37.776;2023-07-24T02:38:13;27.84;38.60
75799;DHT22;70933;44.692;37.776;2023-07-24T02:39:15;27.85;40.12
75799;DHT22;70933;44.692;37.776;2023-07-24T02:40:16;27.86;39.05
75799;DHT22;70933;44.692;37.776;2023-07-24T02:41:18;27.86;38.35
75799;DHT22;70933;44.692;37.776;2023-07-24T02:42:20;27.87;38.03
75799;DHT22;70933;44.692;37.776;2023-07-24T02:43:22;27.85;38.10
75799;DHT22;70933;44.692;37.776;2023-07-24T02:44:23;27.85;37.96
75799;DHT22;70933;44.692;37.776;2023-07-24T02:45:25;27.84;37.47
75799;DHT22;70933;44.692;37.776;2023-07-24T02:46:27;27.83;37.32
75799;DHT22;70933;44.692;37.776;2023-07-24T02:47:30;27.83;36.92
75799;DHT22;70933;44.692;37.776;2023-07-24T02:48:31;27.84;36.89
75799;DHT22;70933;44.692;37.776;2023-07-24T02:49:33;27.82;38.48
75799;DHT22;70933;44.692;37.776;2023-07-24T02:50:35;27.84;40.19
75799;DHT22;70933;44.692;37.776;2023-07-24T02:51:37;27.87;41.49
75799;DHT22;70933;44.692;37.776;2023-07-24T02:52:38;27.87;39.79
75799;DHT22;70933;44.692;37.776;2023-07-24T02:53:40;27.88;39.10
75799;DHT22;70933;44.692;37.776;2023-07-24T02:54:42;27.87;38.70
75799;DHT22;70933;44.692;37.776;2023-07-24T02:55:44;27.88;38.47
75799;DHT22;70933;44.692;37.776;2023-07-24T02:56:46;27.87;38.18
75799;DHT22;70933;44.692;37.776;2023-07-24T02:57:48;27.87;38.62
75799;DHT22;70933;44.692;37.776;2023-07-24T02:58:49;27.87;38.23
75799;DHT22;70933;44.692;37.776;2023-07-24T02:59:51;27.85;38.27
75799;DHT22;70933;44.692;37.776;2023-07-24T03:00:53;27.83;37.87
75799;DHT22;70933;44.692;37.776;2023-07-24T03:01:55;27.84;38.37
75799;DHT22;70933;44.692;37.776;2023-07-24T03:02:57;27.86;40.00
75799;DHT22;70933;44.692;37.776;2023-07-24T03:03:59;27.86;41.52
75799;DHT22;70933;44.692;37.776;2023-07-24T03:05:04;27.88;41.33
75799;DHT22;70933;44.692;37.776;2023-07-24T03:06:06;27.89;40.09
75799;DHT22;70933;44.692;37.776;2023-07-24T03:07:07;27.88;40.11
75799;DHT22;70933;44.692;37.776;2023-07-24T03:08:10;27.89;39.90
75799;DHT22;70933;44.692;37.776;2023-07-24T03:09:12;27.88;39.28
75799;DHT22;70933;44.692;37.776;2023-07-24T03:10:14;27.87;39.34
75799;DHT22;70933;44.692;37.776;2023-07-24T03:11:16;27.87;38.93
75799;DHT22;70933;44.692;37.776;2023-07-24T03:12:20;27.87;38.53
75799;DHT22;70933;44.692;37.776;2023-07-24T03:13:22;27.85;38.43
75799;DHT22;70933;44.692;37.776;2023-07-24T03:14:24;27.85;39.66
75799;DHT22;70933;44.692;37.776;2023-07-24T03:15:26;27.86;41.62
75799;DHT22;70933;44.692;37.776;2023-07-24T03:16:28;27.89;42.77
75799;DHT22;70933;44.692;37.776;2023-07-24T03:17:30;27.89;41.01
75799;DHT22;70933;44.692;37.776;2023-07-24T03:18:31;27.89;40.35
75799;DHT22;70933;44.692;37.776;2023-07-24T03:19:33;27.90;40.16
75799;DHT22;70933;44.692;37.776;2023-07-24T03:20:35;27.90;39.97
75799;DHT22;70933;44.692;37.776;2023-07-24T03:21:37;27.89;39.66
75799;DHT22;70933;44.692;37.776;2023-07-24T03:22:40;27.88;39.20
75799;DHT22;70933;44.692;37.776;2023-07-24T03:23:43;27.88;39.14
75799;DHT22;70933;44.692;37.776;2023-07-24T03:24:45;27.87;39.15
75799;DHT22;70933;44.692;37.776;2023-07-24T03:25:47;27.85;39.32
75799;DHT22;70933;44.692;37.776;2023-07-24T03:26:48;27.87;40.57
75799;DHT22;70933;44.692;37.776;2023-07-24T03:27:50;27.89;42.77
75799;DHT22;70933;44.692;37.776;2023-07-24T03:28:52;27.90;42.72
75799;DHT22;70933;44.692;37.776;2023-07-24T03:29:54;27.93;41.52
75799;DHT22;70933;44.692;37.776;2023-07-24T03:30:55;27.91;40.63
75799;DHT22;70933;44.692;37.776;2023-07-24T03:31:58;27.89;39.97
75799;DHT22;70933;44.692;37.776;2023-07-24T03:33:01;27.90;39.94
75799;DHT22;70933;44.692;37.776;2023-07-24T03:34:06;27.89;40.12
75799;DHT22;70933;44.692;37.776;2023-07-24T03:35:08;27.89;39.80
75799;DHT22;70933;44.692;37.776;2023-07-24T03:36:10;27.87;39.44
75799;DHT22;70933;44.692;37.776;2023-07-24T03:37:12;27.87;39.25
75799;DHT22;70933;44.692;37.776;2023-07-24T03:38:14;27.87;40.04
75799;DHT22;70933;44.692;37.776;2023-07-24T03:39:16;27.88;41.21
75799;DHT22;70933;44.692;37.776;2023-07-24T03:40:18;27.91;43.58
75799;DHT22;70933;44.692;37.776;2023-07-24T03:41:19;27.93;41.55
75799;DHT22;70933;44.692;37.776;2023-07-24T03:42:29;27.93;40.87
75799;DHT22;70933;44.692;37.776;2023-07-24T03:43:32;27.91;40.28
75799;DHT22;70933;44.692;37.776;2023-07-24T03:44:34;27.91;40.20
75799;DHT22;70933;44.692;37.776;2023-07-24T03:45:36;27.90;39.83
75799;DHT22;70933;44.692;37.776;2023-07-24T03:46:39;27.89;39.64
75799;DHT22;70933;44.692;37.776;2023-07-24T03:47:43;27.88;39.36
75799;DHT22;70933;44.692;37.776;2023-07-24T03:48:45;27.86;39.33
75799;DHT22;70933;44.692;37.776;2023-07-24T03:49:46;27.86;38.92
75799;DHT22;70933;44.692;37.776;2023-07-24T03:50:50;27.86;38.75
75799;DHT22;70933;44.692;37.776;2023-07-24T03:51:52;27.84;38.72
75799;DHT22;70933;44.692;37.776;2023-07-24T03:52:54;27.82;38.72
75799;DHT22;70933;44.692;37.776;2023-07-24T03:53:56;27.81;39.78
75799;DHT22;70933;44.692;37.776;2023-07-24T03:54:57;27.84;41.58
75799;DHT22;70933;44.692;37.776;2023-07-24T03:55:59;27.87;43.13
75799;DHT22;70933;44.692;37.776;2023-07-24T03:57:01;27.89;42.00
75799;DHT22;70933;44.692;37.776;2023-07-24T03:58:03;27.89;41.01
75799;DHT22;70933;44.692;37.776;2023-07-24T03:59:06;27.88;40.39
75799;DHT22;70933;44.692;37.776;2023-07-24T04:00:08;27.88;40.10
75799;DHT22;70933;44.692;37.776;2023-07-24T04:01:16;27.86;39.42
75799;DHT22;70933;44.692;37.776;2023-07-24T04:02:19;27.85;39.05
75799;DHT22;70933;44.692;37.776;2023-07-24T04:03:20;27.86;39.40
75799;DHT22;70933;44.692;37.776;2023-07-24T04:04:22;27.85;39.17
75799;DHT22;70933;44.692;37.776;2023-07-24T04:05:24;27.85;38.96
75799;DHT22;70933;44.692;37.776;2023-07-24T04:06:26;27.84;38.14
75799;DHT22;70933;44.692;37.776;2023-07-24T04:07:28;27.82;37.99
75799;DHT22;70933;44.692;37.776;2023-07-24T04:08:30;27.83;37.88
75799;DHT22;70933;44.692;37.776;2023-07-24T04:09:32;27.82;38.34
75799;DHT22;70933;44.692;37.776;2023-07-24T04:10:34;27.84;39.80
75799;DHT22;70933;44.692;37.776;2023-07-24T04:11:35;27.85;40.75
75799;DHT22;70933;44.692;37.776;2023-07-24T04:12:39;27.87;39.52
75799;DHT22;70933;44.692;37.776;2023-07-24T04:13:41;27.87;38.89
75799;DHT22;70933;44.692;37.776;2023-07-24T04:14:43;27.86;38.50
75799;DHT22;70933;44.692;37.776;2023-07-24T04:15:45;27.86;37.88
75799;DHT22;70933;44.692;37.776;2023-07-24T04:16:47;27.86;37.75
75799;DHT22;70933;44.692;37.776;2023-07-24T04:17:49;27.86;38.14
75799;DHT22;70933;44.692;37.776;2023-07-24T04:18:50;27.85;37.81
75799;DHT22;70933;44.692;37.776;2023-07-24T04:19:52;27.83;37.35
75799;DHT22;70933;44.692;37.776;2023-07-24T04:20:55;27.83;37.01
75799;DHT22;70933;44.692;37.776;2023-07-24T04:21:57;27.80;37.76
75799;DHT22;70933;44.692;37.776;2023-07-24T04:22:59;27.82;38.94
75799;DHT22;70933;44.692;37.776;2023-07-24T04:24:01;27.85;40.27
75799;DHT22;70933;44.692;37.776;2023-07-24T04:25:03;27.86;40.10
75799;DHT22;70933;44.692;37.776;2023-07-24T04:26:05;27.87;39.30
75799;DHT22;70933;44.692;37.776;2023-07-24T04:27:07;27.87;38.94
75799;DHT22;70933;44.692;37.776;2023-07-24T04:28:09;27.86;38.43
75799;DHT22;70933;44.692;37.776;2023-07-24T04:29:11;27.87;37.89
75799;DHT22;70933;44.692;37.776;2023-07-24T04:30:13;27.86;37.31
75799;DHT22;70933;44.692;37.776;2023-07-24T04:31:14;27.84;37.38
75799;DHT22;70933;44.692;37.776;2023-07-24T04:32:16;27.83;37.90
75799;DHT22;70933;44.692;37.776;2023-07-24T04:33:18;27.83;38.17
75799;DHT22;70933;44.692;37.776;2023-07-24T04:34:20;27.82;38.00
75799;DHT22;70933;44.692;37.776;2023-07-24T04:35:21;27.82;38.91
75799;DHT22;70933;44.692;37.776;2023-07-24T04:36:23;27.84;40.32
75799;DHT22;70933;44.692;37.776;2023-07-24T04:37:25;27.86;41.34
75799;DHT22;70933;44.692;37.776;2023-07-24T04:38:27;27.86;39.78
75799;DHT22;70933;44.692;37.776;2023-07-24T04:39:29;27.87;39.69
75799;DHT22;70933;44.692;37.776;2023-07-24T04:40:30;27.87;38.96
75799;DHT22;70933;44.692;37.776;2023-07-24T04:41:32;27.87;39.62
75799;DHT22;70933;44.692;37.776;2023-07-24T04:42:35;27.87;39.48
75799;DHT22;70933;44.692;37.776;2023-07-24T04:43:36;27.85;39.42
75799;DHT22;70933;44.692;37.776;2023-07-24T04:44:38;27.86;39.05
75799;DHT22;70933;44.692;37.776;2023-07-24T04:45:40;27.84;39.10
75799;DHT22;70933;44.692;37.776;2023-07-24T04:46:42;27.84;39.20
75799;DHT22;70933;44.692;37.776;2023-07-24T04:47:44;27.83;38.87
75799;DHT22;70933;44.692;37.776;2023-07-24T04:48:46;27.83;39.19
75799;DHT22;70933;44.692;37.776;2023-07-24T04:49:47;27.85;40.75
75799;DHT22;70933;44.692;37.776;2023-07-24T04:50:56;27.86;42.34
75799;DHT22;70933;44.692;37.776;2023-07-24T04:52:00;27.88;42.13
75799;DHT22;70933;44.692;37.776;2023-07-24T04:53:02;27.90;41.22
75799;DHT22;70933;44.692;37.776;2023-07-24T04:54:04;27.87;40.71
75799;DHT22;70933;44.692;37.776;2023-07-24T04:55:06;27.90;40.31
75799;DHT22;70933;44.692;37.776;2023-07-24T04:56:08;27.87;39.76
75799;DHT22;70933;44.692;37.776;2023-07-24T04:57:10;27.87;39.71
75799;DHT22;70933;44.692;37.776;2023-07-24T04:58:12;27.87;39.71
75799;DHT22;70933;44.692;37.776;2023-07-24T04:59:14;27.86;39.48
75799;DHT22;70933;44.692;37.776;2023-07-24T05:00:16;27.85;39.38
75799;DHT22;70933;44.692;37.776;2023-07-24T05:01:19;27.85;39.17
75799;DHT22;70933;44.692;37.776;2023-07-24T05:02:21;27.84;38.76
75799;DHT22;70933;44.692;37.776;2023-07-24T05:03:22;27.85;38.58
75799;DHT22;70933;44.692;37.776;2023-07-24T05:04:24;27.83;38.49
75799;DHT22;70933;44.692;37.776;2023-07-24T05:05:26;27.82;38.46
75799;DHT22;70933;44.692;37.776;2023-07-24T05:06:28;27.83;38.09
75799;DHT22;70933;44.692;37.776;2023-07-24T05:07:30;27.81;38.31
75799;DHT22;70933;44.692;37.776;2023-07-24T05:08:31;27.83;38.85
75799;DHT22;70933;44.692;37.776;2023-07-24T05:09:33;27.83;39.23
75799;DHT22;70933;44.692;37.776;2023-07-24T05:10:36;27.85;41.03
75799;DHT22;70933;44.692;37.776;2023-07-24T05:11:38;27.87;42.85
75799;DHT22;70933;44.692;37.776;2023-07-24T05:12:42;27.89;42.25
75799;DHT22;70933;44.692;37.776;2023-07-24T05:13:44;27.90;41.73
75799;DHT22;70933;44.692;37.776;2023-07-24T05:14:46;27.90;42.00
75799;DHT22;70933;44.692;37.776;2023-07-24T05:15:48;27.93;41.84
75799;DHT22;70933;44.692;37.776;2023-07-24T05:16:50;27.94;41.34
75799;DHT22;70933;44.692;37.776;2023-07-24T05:17:51;27.95;41.21
75799;DHT22;70933;44.692;37.776;2023-07-24T05:18:53;27.95;40.88
75799;DHT22;70933;44.692;37.776;2023-07-24T05:19:55;27.95;40.59
75799;DHT22;70933;44.692;37.776;2023-07-24T05:20:57;27.96;40.56
75799;DHT22;70933;44.692;37.776;2023-07-24T05:21:58;27.96;40.43
75799;DHT22;70933;44.692;37.776;2023-07-24T05:23:00;27.97;40.26
75799;DHT22;70933;44.692;37.776;2023-07-24T05:24:02;27.98;40.04
75799;DHT22;70933;44.692;37.776;2023-07-24T05:25:04;27.98;40.14
75799;DHT22;70933;44.692;37.776;2023-07-24T05:26:07;27.98;39.65
75799;DHT22;70933;44.692;37.776;2023-07-24T05:27:08;27.97;38.98
75799;DHT22;70933;44.692;37.776;2023-07-24T05:28:10;27.97;38.59
75799;DHT22;70933;44.692;37.776;2023-07-24T05:29:12;27.98;38.43
75799;DHT22;70933;44.692;37.776;2023-07-24T05:30:14;27.98;38.21
75799;DHT22;70933;44.692;37.776;2023-07-24T05:31:17;27.98;37.89
75799;DHT22;70933;44.692;37.776;2023-07-24T05:32:18;27.98;37.90
75799;DHT22;70933;44.692;37.776;2023-07-24T05:33:20;27.98;38.43
75799;DHT22;70933;44.692;37.776;2023-07-24T05:34:22;28.00;39.60
75799;DHT22;70933;44.692;37.776;2023-07-24T05:35:24;28.00;41.16
75799;DHT22;70933;44.692;37.776;2023-07-24T05:36:26;28.04;41.13
75799;DHT22;70933;44.692;37.776;2023-07-24T05:37:27;28.04;39.89
75799;DHT22;70933;44.692;37.776;2023-07-24T05:38:30;28.03;39.16
75799;DHT22;70933;44.692;37.776;2023-07-24T05:39:32;28.05;39.08
75799;DHT22;70933;44.692;37.776;2023-07-24T05:40:33;28.05;38.73
75799;DHT22;70933;44.692;37.776;2023-07-24T05:41:35;28.05;38.58
75799;DHT22;70933;44.692;37.776;2023-07-24T05:42:37;28.04;38.96
75799;DHT22;70933;44.692;37.776;2023-07-24T05:43:44;28.06;38.72
75799;DHT22;70933;44.692;37.776;2023-07-24T05:44:46;28.05;38.67
75799;DHT22;70933;44.692;37.776;2023-07-24T05:45:48;28.06;38.91
75799;DHT22;70933;44.692;37.776;2023-07-24T05:46:50;28.06;38.62
75799;DHT22;70933;44.692;37.776;2023-07-24T05:47:51;28.06;38.58
75799;DHT22;70933;44.692;37.776;2023-07-24T05:48:53;28.09;38.23
75799;DHT22;70933;44.692;37.776;2023-07-24T05:49:55;28.10;38.33
75799;DHT22;70933;44.692;37.776;2023-07-24T05:50:57;28.10;38.53
75799;DHT22;70933;44.692;37.776;2023-07-24T05:51:58;28.09;37.96
75799;DHT22;70933;44.692;37.776;2023-07-24T05:53:00;28.11;38.82
75799;DHT22;70933;44.692;37.776;2023-07-24T05:54:02;28.12;39.96
75799;DHT22;70933;44.692;37.776;2023-07-24T05:55:04;28.13;41.45
75799;DHT22;70933;44.692;37.776;2023-07-24T05:56:06;28.16;41.44
75799;DHT22;70933;44.692;37.776;2023-07-24T05:57:08;28.18;40.39
75799;DHT22;70933;44.692;37.776;2023-07-24T05:58:10;28.19;39.87
75799;DHT22;70933;44.692;37.776;2023-07-24T05:59:13;28.19;39.64
75799;DHT22;70933;44.692;37.776;2023-07-24T06:00:15;28.20;39.09
75799;DHT22;70933;44.692;37.776;2023-07-24T06:01:18;28.19;38.65
75799;DHT22;70933;44.692;37.776;2023-07-24T06:02:20;28.19;38.51
75799;DHT22;70933;44.692;37.776;2023-07-24T06:03:23;28.20;38.22
75799;DHT22;70933;44.692;37.776;2023-07-24T06:04:25;28.20;37.72
75799;DHT22;70933;44.692;37.776;2023-07-24T06:05:27;28.20;37.89
75799;DHT22;70933;44.692;37.776;2023-07-24T06:06:28;28.21;37.82
75799;DHT22;70933;44.692;37.776;2023-07-24T06:07:30;28.23;38.02
75799;DHT22;70933;44.692;37.776;2023-07-24T06:08:32;28.21;37.64
75799;DHT22;70933;44.692;37.776;2023-07-24T06:09:34;28.21;37.36
75799;DHT22;70933;44.692;37.776;2023-07-24T06:10:36;28.21;37.20
75799;DHT22;70933;44.692;37.776;2023-07-24T06:11:38;28.23;36.86
75799;DHT22;70933;44.692;37.776;2023-07-24T06:12:40;28.21;36.74
75799;DHT22;70933;44.692;37.776;2023-07-24T06:13:42;28.21;36.43
75799;DHT22;70933;44.692;37.776;2023-07-24T06:14:44;28.23;36.34
75799;DHT22;70933;44.692;37.776;2023-07-24T06:15:49;28.24;36.60
75799;DHT22;70933;44.692;37.776;2023-07-24T06:16:51;28.23;37.21
75799;DHT22;70933;44.692;37.776;2023-07-24T06:17:52;28.24;38.26
75799;DHT22;70933;44.692;37.776;2023-07-24T06:18:54;28.25;39.76
75799;DHT22;70933;44.692;37.776;2023-07-24T06:19:56;28.26;39.73
75799;DHT22;70933;44.692;37.776;2023-07-24T06:20:58;28.28;38.46
75799;DHT22;70933;44.692;37.776;2023-07-24T06:22:00;28.28;38.28
75799;DHT22;70933;44.692;37.776;2023-07-24T06:23:01;28.28;37.86
75799;DHT22;70933;44.692;37.776;2023-07-24T06:24:05;28.29;37.61
75799;DHT22;70933;44.692;37.776;2023-07-24T06:25:09;28.30;37.38
75799;DHT22;70933;44.692;37.776;2023-07-24T06:26:11;28.30;37.18
75799;DHT22;70933;44.692;37.776;2023-07-24T06:27:13;28.31;37.43
75799;DHT22;70933;44.692;37.776;2023-07-24T06:28:15;28.30;37.43
75799;DHT22;70933;44.692;37.776;2023-07-24T06:29:16;28.32;37.14
75799;DHT22;70933;44.692;37.776;2023-07-24T06:30:18;28.30;36.98
75799;DHT22;70933;44.692;37.776;2023-07-24T06:31:20;28.29;36.82
75799;DHT22;70933;44.692;37.776;2023-07-24T06:32:22;28.30;37.21